createdAt,value
2018-02-05T00:02:21.062Z,94448.67
2018-02-05T00:04:48.780Z,94450.07
2018-02-05T00:07:17.632Z,94449.74
2018-02-05T00:09:45.444Z,94457.92
2018-02-05T00:12:13.214Z,94462.08
2018-02-05T00:14:40.886Z,94461.13
2018-02-05T00:17:08.642Z,94456.98
2018-02-05T00:19:36.415Z,94460.04
2018-02-05T00:22:04.113Z,94462.32
2018-02-05T00:24:32.344Z,94462.26
2018-02-05T00:27:00.149Z,94460.11
2018-02-05T00:29:27.830Z,94459.51
2018-02-05T00:31:55.637Z,94462.29
2018-02-05T00:34:23.550Z,94467.84
2018-02-05T00:36:51.571Z,94464.83
2018-02-05T00:39:19.631Z,94468.95
2018-02-05T00:41:47.614Z,94469.19
2018-02-05T00:44:15.686Z,94474.15
2018-02-05T00:46:44.335Z,94461.62
2018-02-05T00:49:12.204Z,94459.67
2018-02-05T00:51:40.310Z,94471.94
2018-02-05T00:54:08.381Z,94469.45
2018-02-05T00:56:36.426Z,94466.84
2018-02-05T00:59:04.526Z,94467.91
2018-02-05T01:01:33.319Z,94463.02
2018-02-05T01:04:01.755Z,94472.90
2018-02-05T01:06:30.188Z,94470.33
2018-02-05T01:08:58.251Z,94473.56
2018-02-05T01:11:26.114Z,94468.00
2018-02-05T01:13:54.189Z,94473.42
2018-02-05T01:16:22.088Z,94472.44
2018-02-05T01:18:50.079Z,94479.52
2018-02-05T01:21:18.068Z,94484.84
2018-02-05T01:23:46.573Z,94480.85
2018-02-05T01:26:18.327Z,94488.77
2018-02-05T01:28:46.747Z,94488.91
2018-02-05T01:31:15.963Z,94488.23
2018-02-05T01:33:44.031Z,94487.39
2018-02-05T01:36:11.895Z,94486.38
2018-02-05T01:38:39.739Z,94489.42
2018-02-05T01:41:11.474Z,94491.28
2018-02-05T01:43:40.061Z,94492.53
2018-02-05T01:46:08.132Z,94492.72
2018-02-05T01:48:38.883Z,94492.33
2018-02-05T01:51:07.143Z,94488.22
2018-02-05T01:53:36.035Z,94488.59
2018-02-05T01:56:03.978Z,94491.59
2018-02-05T01:58:33.071Z,94496.47
2018-02-05T02:01:03.366Z,94500.34
2018-02-05T02:03:32.631Z,94491.84
2018-02-05T02:06:12.468Z,94494.30
2018-02-05T02:11:19.100Z,94487.53
2018-02-05T02:13:49.466Z,94484.25
2018-02-05T02:16:32.332Z,94486.18
2018-02-05T02:19:02.275Z,94488.27
2018-02-05T02:21:38.177Z,94486.52
2018-02-05T02:24:19.355Z,94488.45
2018-02-05T02:27:09.988Z,94486.34
2018-02-05T02:30:17.563Z,94491.94
2018-02-05T02:32:56.903Z,94485.93
2018-02-05T02:35:27.820Z,94486.12
2018-02-05T04:15:11.072Z,94579.00
2018-02-05T04:26:45.603Z,94577.47
2018-02-05T04:45:10.476Z,94579.61
2018-02-05T04:47:48.516Z,94585.70
2018-02-05T05:20:11.386Z,94587.43
2018-02-05T05:22:47.840Z,94583.67
2018-02-05T05:25:16.936Z,94587.41
2018-02-05T05:27:58.564Z,94582.55
2018-02-05T05:33:43.161Z,94587.16
2018-02-05T05:36:19.567Z,94584.26
2018-02-05T05:41:47.728Z,94586.44
2018-02-05T05:44:16.557Z,94581.41
2018-02-05T05:46:55.138Z,94583.41
2018-02-05T05:49:23.153Z,94581.66
2018-02-05T05:52:07.169Z,94588.48
2018-02-05T05:54:37.953Z,94591.05
2018-02-05T05:57:20.745Z,94596.64
2018-02-05T06:00:11.492Z,94592.47
2018-02-05T06:05:38.797Z,94600.55
2018-02-05T06:08:21.786Z,94595.97
2018-02-05T06:11:03.437Z,94598.73
2018-02-05T06:13:33.073Z,94598.82
2018-02-05T06:16:20.161Z,94601.50
2018-02-05T06:23:23.117Z,94605.75
2018-02-05T06:26:00.874Z,94596.71
2018-02-05T06:32:58.936Z,94610.53
2018-02-05T06:35:32.089Z,94616.36
2018-02-05T06:38:02.177Z,94614.92
2018-02-05T06:40:30.064Z,94610.49
2018-02-05T06:43:03.018Z,94613.50
2018-02-05T06:45:40.772Z,94614.59
2018-02-05T06:50:59.006Z,94622.25
2018-02-05T06:57:10.927Z,94630.05
2018-02-05T06:59:49.604Z,94627.23
2018-02-05T07:05:13.014Z,94626.66
2018-02-05T07:07:49.874Z,94624.48
2018-02-05T07:10:22.179Z,94624.83
2018-02-05T07:12:58.232Z,94624.64
2018-02-05T07:18:18.546Z,94620.45
2018-02-05T07:20:53.377Z,94625.70
2018-02-05T07:23:22.025Z,94622.88
2018-02-05T07:25:52.591Z,94625.47
2018-02-05T07:28:26.777Z,94629.75
2018-02-05T07:33:57.778Z,94647.90
2018-02-05T07:36:34.570Z,94650.37
2018-02-05T07:39:14.286Z,94644.30
2018-02-05T07:46:14.542Z,94648.36
2018-02-05T07:48:52.670Z,94641.77
2018-02-05T07:51:24.047Z,94642.05
2018-02-05T07:53:53.519Z,94647.42
2018-02-05T07:56:23.441Z,94647.78
2018-02-05T07:58:55.715Z,94644.50
2018-02-05T08:01:28.036Z,94652.75
2018-02-05T08:03:57.222Z,94654.45
2018-02-05T08:06:27.541Z,94654.98
2018-02-05T08:09:05.091Z,94646.33
2018-02-05T08:11:50.226Z,94638.44
2018-02-05T08:14:22.523Z,94623.36
2018-02-05T08:16:55.668Z,94629.93
2018-02-05T08:19:47.703Z,94622.91
2018-02-05T08:22:27.423Z,94613.44
2018-02-05T08:25:00.008Z,94623.03
2018-02-05T08:27:30.975Z,94624.45
2018-02-05T08:30:01.217Z,94617.88
2018-02-05T08:32:32.559Z,94621.52
2018-02-05T08:37:37.424Z,94621.17
2018-02-05T08:40:05.590Z,94618.80
2018-02-05T08:42:33.908Z,94614.69
2018-02-05T08:45:08.644Z,94614.28
2018-02-05T08:47:37.522Z,94620.78
2018-02-05T08:50:06.495Z,94616.21
2018-02-05T08:52:34.574Z,94612.39
2018-02-05T08:55:03.459Z,94608.40
2018-02-05T08:57:31.340Z,94612.31
2018-02-05T08:59:59.602Z,94605.66
2018-02-05T09:02:28.561Z,94608.38
2018-02-05T09:04:57.134Z,94613.17
2018-02-05T09:07:25.148Z,94609.14
2018-02-05T09:09:53.228Z,94611.19
2018-02-05T09:12:20.976Z,94608.88
2018-02-05T09:14:48.962Z,94611.17
2018-02-05T09:17:17.237Z,94609.97
2018-02-05T09:19:45.261Z,94608.39
2018-02-05T09:22:13.001Z,94618.88
2018-02-05T09:24:40.873Z,94609.80
2018-02-05T09:27:08.837Z,94606.19
2018-02-05T09:29:36.832Z,94606.57
2018-02-05T09:32:04.811Z,94597.64
2018-02-05T09:34:32.663Z,94604.82
2018-02-05T09:37:00.532Z,94599.81
2018-02-05T09:39:28.544Z,94604.81
2018-02-05T09:41:56.564Z,94600.78
2018-02-05T09:44:24.637Z,94595.61
2018-02-05T09:46:52.476Z,94597.52
2018-02-05T09:49:20.631Z,94594.45
2018-02-05T09:51:48.522Z,94588.81
2018-02-05T09:54:16.369Z,94584.38
2018-02-05T09:56:45.897Z,94586.53
2018-02-05T09:59:13.933Z,94580.70
2018-02-05T10:01:43.214Z,94569.92
2018-02-05T10:04:11.136Z,94576.10
2018-02-05T10:06:39.592Z,94573.58
2018-02-05T10:09:08.080Z,94579.56
2018-02-05T10:11:36.021Z,94578.80
2018-02-05T10:14:03.859Z,94567.73
2018-02-05T10:16:31.990Z,94563.27
2018-02-05T10:19:00.043Z,94559.64
2018-02-05T10:21:28.689Z,94560.17
2018-02-05T10:23:56.879Z,94564.81
2018-02-05T10:26:24.745Z,94567.70
2018-02-05T10:28:52.751Z,94559.58
2018-02-05T10:31:21.028Z,94560.98
2018-02-05T10:33:49.098Z,94549.63
2018-02-05T10:36:17.170Z,94543.34
2018-02-05T10:38:45.226Z,94538.64
2018-02-05T10:41:13.329Z,94539.90
2018-02-05T10:43:41.205Z,94534.39
2018-02-05T10:46:09.066Z,94530.67
2018-02-05T10:48:37.025Z,94532.03
2018-02-05T10:51:04.940Z,94528.56
2018-02-05T10:53:33.034Z,94523.72
2018-02-05T10:56:01.096Z,94517.09
2018-02-05T10:58:29.204Z,94506.10
2018-02-05T11:00:57.958Z,94502.90
2018-02-05T11:03:25.824Z,94509.06
2018-02-05T11:05:53.829Z,94500.98
2018-02-05T11:08:21.904Z,94497.83
2018-02-05T11:10:50.251Z,94497.87
2018-02-05T11:13:18.661Z,94495.06
2018-02-05T11:15:47.968Z,94486.41
2018-02-05T11:18:16.001Z,94486.67
2018-02-05T11:20:43.771Z,94483.92
2018-02-05T11:23:11.612Z,94476.58
2018-02-05T11:25:39.638Z,94477.36
2018-02-05T11:28:07.571Z,94470.53
2018-02-05T11:30:35.661Z,94474.83
2018-02-05T11:33:03.725Z,94472.70
2018-02-05T11:35:31.820Z,94469.20
2018-02-05T11:37:59.842Z,94462.03
2018-02-05T11:40:28.224Z,94466.16
2018-02-05T11:42:56.226Z,94459.20
2018-02-05T11:45:24.293Z,94458.88
2018-02-05T11:47:52.385Z,94456.91
2018-02-05T11:50:20.661Z,94451.33
2018-02-05T11:52:48.673Z,94452.05
2018-02-05T11:55:17.410Z,94446.34
2018-02-05T11:57:45.472Z,94446.09
2018-02-05T12:00:13.479Z,94439.55
2018-02-05T12:02:42.558Z,94442.36
2018-02-05T12:05:10.705Z,94433.60
2018-02-05T12:07:38.870Z,94432.20
2018-02-05T12:10:06.993Z,94425.35
2018-02-05T12:12:35.048Z,94431.68
2018-02-05T12:15:03.120Z,94426.31
2018-02-05T12:17:31.136Z,94420.89
2018-02-05T12:19:59.034Z,94421.65
2018-02-05T12:22:27.124Z,94419.07
2018-02-05T12:24:55.392Z,94414.91
2018-02-05T12:27:23.488Z,94415.16
2018-02-05T12:29:52.369Z,94407.74
2018-02-05T12:32:20.390Z,94408.41
2018-02-05T12:34:48.516Z,94406.08
2018-02-05T12:37:16.523Z,94411.09
2018-02-05T12:39:44.640Z,94407.45
2018-02-05T12:42:12.721Z,94415.36
2018-02-05T12:44:40.650Z,94406.10
2018-02-05T12:47:08.774Z,94405.86
2018-02-05T12:49:36.660Z,94404.80
2018-02-05T12:52:04.776Z,94404.34
2018-02-05T12:54:33.473Z,94397.17
2018-02-05T12:57:01.560Z,94398.78
2018-02-05T12:59:29.752Z,94387.07
2018-02-05T13:02:08.184Z,94383.23
2018-02-05T13:04:41.835Z,94384.13
2018-02-05T13:07:09.991Z,94382.69
2018-02-05T13:09:38.828Z,94382.44
2018-02-05T13:12:07.164Z,94385.70
2018-02-05T13:14:35.174Z,94375.72
2018-02-05T13:17:03.720Z,94377.53
2018-02-05T13:19:31.743Z,94373.65
2018-02-05T13:22:00.619Z,94375.08
2018-02-05T13:24:28.647Z,94371.72
2018-02-05T13:26:56.388Z,94376.14
2018-02-05T13:29:24.150Z,94374.20
2018-02-05T13:31:52.248Z,94377.09
2018-02-05T13:34:20.541Z,94375.00
2018-02-05T13:36:48.644Z,94378.14
2018-02-05T13:39:16.698Z,94369.02
2018-02-05T13:41:44.872Z,94369.94
2018-02-05T13:44:13.059Z,94365.30
2018-02-05T13:46:41.337Z,94366.48
2018-02-05T13:49:09.317Z,94361.09
2018-02-05T13:51:37.433Z,94364.73
2018-02-05T13:54:05.550Z,94362.21
2018-02-05T13:56:33.436Z,94358.35
2018-02-05T13:59:01.483Z,94358.27
2018-02-05T14:01:31.714Z,94352.45
2018-02-05T14:03:59.543Z,94355.70
2018-02-05T14:06:27.558Z,94347.04
2018-02-05T14:08:56.225Z,94343.30
2018-02-05T14:11:24.413Z,94334.47
2018-02-05T14:13:52.339Z,94332.95
2018-02-05T14:16:20.305Z,94332.01
2018-02-05T14:18:48.628Z,94333.35
2018-02-05T14:21:17.782Z,94331.98
2018-02-05T14:23:45.680Z,94327.12
2018-02-05T14:26:13.471Z,94322.78
2018-02-05T14:28:41.491Z,94323.28
2018-02-05T14:31:09.582Z,94339.80
2018-02-05T14:33:37.676Z,94328.33
2018-02-05T14:36:06.977Z,94331.92
2018-02-05T14:38:35.455Z,94333.06
2018-02-05T14:41:03.401Z,94334.98
2018-02-05T14:43:31.818Z,94336.23
2018-02-05T14:45:59.736Z,94332.27
2018-02-05T14:48:27.901Z,94336.22
2018-02-05T14:50:56.030Z,94337.18
2018-02-05T14:53:23.887Z,94341.03
2018-02-05T14:55:52.677Z,94335.55
2018-02-05T14:58:20.751Z,94342.16
2018-02-05T15:00:48.664Z,94331.23
2018-02-05T15:03:16.893Z,94336.61
2018-02-05T15:05:44.662Z,94334.84
2018-02-05T15:08:12.627Z,94337.81
2018-02-05T15:10:40.552Z,94339.95
2018-02-05T15:13:08.446Z,94337.05
2018-02-05T15:15:36.290Z,94331.76
2018-02-05T15:18:04.879Z,94334.45
2018-02-05T15:20:32.770Z,94333.55
2018-02-05T15:23:01.444Z,94329.89
2018-02-05T15:25:30.140Z,94325.72
2018-02-05T15:27:58.226Z,94321.80
2018-02-05T15:30:26.170Z,94325.69
2018-02-05T15:32:54.269Z,94321.32
2018-02-05T15:35:22.277Z,94313.31
2018-02-05T15:37:50.847Z,94310.62
2018-02-05T15:40:20.333Z,94313.84
2018-02-05T15:42:48.349Z,94309.84
2018-02-05T15:45:16.971Z,94310.23
2018-02-05T15:47:45.259Z,94308.70
2018-02-05T15:50:13.109Z,94313.43
2018-02-05T15:52:40.845Z,94309.69
2018-02-05T15:55:08.975Z,94311.03
2018-02-05T15:57:36.767Z,94317.15
2018-02-05T16:00:04.668Z,94316.34
2018-02-05T16:02:32.368Z,94318.53
2018-02-05T16:05:01.120Z,94320.33
2018-02-05T16:07:28.868Z,94312.33
2018-02-05T16:09:56.562Z,94318.47
2018-02-05T16:12:24.433Z,94317.40
2018-02-05T16:14:52.206Z,94322.21
2018-02-05T16:17:19.910Z,94322.95
2018-02-05T16:19:47.677Z,94320.48
2018-02-05T16:22:15.573Z,94324.14
2018-02-05T16:24:43.450Z,94327.36
2018-02-05T16:27:11.273Z,94329.53
2018-02-05T16:29:39.143Z,94333.09
2018-02-05T16:32:07.096Z,94335.70
2018-02-05T16:34:35.780Z,94327.80
2018-02-05T16:37:03.498Z,94335.42
2018-02-05T16:39:31.324Z,94330.47
2018-02-05T16:41:59.159Z,94334.58
2018-02-05T16:44:27.176Z,94333.33
2018-02-05T16:46:55.013Z,94332.88
2018-02-05T16:49:24.087Z,94331.47
2018-02-05T16:51:54.192Z,94327.77
2018-02-05T16:54:23.107Z,94337.45
2018-02-05T16:56:51.668Z,94332.30
2018-02-05T16:59:20.973Z,94337.66
2018-02-05T17:01:50.053Z,94337.41
2018-02-05T17:04:18.130Z,94335.98
2018-02-05T17:06:46.156Z,94338.34
2018-02-05T17:09:15.415Z,94342.91
2018-02-05T17:11:43.594Z,94343.19
2018-02-05T17:14:11.285Z,94346.26
2018-02-05T17:16:39.140Z,94344.22
2018-02-05T17:19:07.208Z,94343.73
2018-02-05T17:21:34.989Z,94344.63
2018-02-05T17:24:02.890Z,94339.48
2018-02-05T17:26:32.180Z,94340.06
2018-02-05T17:29:00.053Z,94342.33
2018-02-05T17:31:27.861Z,94338.87
2018-02-05T17:33:55.709Z,94338.11
2018-02-05T17:36:23.590Z,94334.21
2018-02-05T17:38:51.496Z,94334.05
2018-02-05T17:41:19.505Z,94325.20
2018-02-05T17:43:47.586Z,94322.86
2018-02-05T17:46:16.397Z,94330.51
2018-02-05T17:48:44.375Z,94329.20
2018-02-05T17:51:16.684Z,94331.33
2018-02-05T17:53:44.912Z,94327.28
2018-02-05T17:56:12.903Z,94324.63
2018-02-05T17:58:41.801Z,94318.59
2018-02-05T18:01:11.691Z,94325.64
2018-02-05T18:03:40.003Z,94318.41
2018-02-05T18:06:07.820Z,94321.98
2018-02-05T18:08:37.089Z,94328.00
2018-02-05T18:11:05.966Z,94323.14
2018-02-05T18:13:34.877Z,94327.96
2018-02-05T18:16:03.103Z,94334.88
2018-02-05T18:18:31.142Z,94333.66
2018-02-05T18:21:00.093Z,94329.77
2018-02-05T18:23:27.855Z,94332.86
2018-02-05T18:25:55.672Z,94333.25
2018-02-05T18:28:23.556Z,94333.62
2018-02-05T18:30:51.400Z,94334.39
2018-02-05T18:33:19.249Z,94323.94
2018-02-05T18:35:47.427Z,94323.81
2018-02-05T18:38:15.204Z,94325.61
2018-02-05T18:40:42.962Z,94327.27
2018-02-05T18:43:10.843Z,94322.07
2018-02-05T18:45:38.561Z,94326.66
2018-02-05T18:48:06.387Z,94328.35
2018-02-05T18:50:34.168Z,94326.41
2018-02-05T18:53:27.773Z,94323.88
2018-02-05T18:55:56.992Z,94325.27
2018-02-05T18:58:25.027Z,94327.34
2018-02-05T19:00:53.781Z,94320.05
2018-02-05T19:03:22.840Z,94324.13
2018-02-05T19:05:54.069Z,94325.42
2018-02-05T19:08:22.630Z,94317.98
2018-02-05T19:10:50.572Z,94320.60
2018-02-05T19:13:18.543Z,94320.45
2018-02-05T19:15:46.818Z,94318.50
2018-02-05T19:18:15.091Z,94326.06
2018-02-05T19:20:43.169Z,94323.88
2018-02-05T19:23:11.157Z,94327.17
2018-02-05T19:25:41.138Z,94323.84
2018-02-05T19:28:10.041Z,94323.59
2018-02-05T19:30:39.581Z,94328.34
2018-02-05T19:33:07.745Z,94324.81
2018-02-05T19:35:35.476Z,94326.35
2018-02-05T19:38:03.451Z,94328.30
2018-02-05T19:40:32.599Z,94333.70
2018-02-05T19:43:01.449Z,94325.66
2018-02-05T19:45:30.478Z,94329.54
2018-02-05T19:47:58.349Z,94329.98
2018-02-05T19:50:27.382Z,94323.89
2018-02-05T19:52:55.138Z,94328.41
2018-02-05T19:55:23.640Z,94327.20
2018-02-05T19:57:51.572Z,94331.78
2018-02-05T20:00:20.700Z,94330.18
2018-02-05T20:02:48.525Z,94329.27
2018-02-05T20:05:16.692Z,94326.05
2018-02-05T20:07:45.401Z,94326.12
2018-02-05T20:12:49.485Z,94320.52
2018-02-05T20:15:17.379Z,94325.18
2018-02-05T20:17:45.330Z,94321.66
2018-02-05T20:20:13.237Z,94327.07
2018-02-05T20:22:42.055Z,94322.05
2018-02-05T20:25:10.011Z,94326.48
2018-02-05T20:27:39.813Z,94331.63
2018-02-05T20:30:07.767Z,94328.75
2018-02-05T20:32:37.408Z,94325.66
2018-02-05T20:35:05.390Z,94329.98
2018-02-05T20:37:33.490Z,94338.05
2018-02-05T20:40:01.441Z,94330.02
2018-02-05T20:42:30.152Z,94328.75
2018-02-05T20:44:57.988Z,94328.00
2018-02-05T20:47:25.762Z,94326.52
2018-02-05T20:49:54.413Z,94323.66
2018-02-05T20:52:22.169Z,94324.87
2018-02-05T20:54:49.972Z,94329.28
2018-02-05T20:57:20.860Z,94329.91
2018-02-05T20:59:52.406Z,94327.56
2018-02-05T21:02:21.966Z,94325.38
2018-02-05T21:04:53.412Z,94329.27
2018-02-05T21:07:21.390Z,94323.64
2018-02-05T21:09:49.152Z,94328.46
2018-02-05T21:12:16.933Z,94322.44
2018-02-05T21:14:45.583Z,94326.05
2018-02-05T21:17:13.382Z,94324.91
2018-02-05T21:19:42.135Z,94320.84
2018-02-05T21:22:10.071Z,94317.61
2018-02-05T21:24:38.938Z,94317.91
2018-02-05T21:27:06.719Z,94316.48
2018-02-05T21:29:35.224Z,94317.31
2018-02-05T21:32:04.116Z,94318.66
2018-02-05T21:34:33.570Z,94317.84
2018-02-05T21:37:01.362Z,94317.69
2018-02-05T21:39:33.697Z,94326.47
2018-02-05T21:42:07.707Z,94317.07
2018-02-05T21:44:37.734Z,94316.61
2018-02-05T21:47:06.850Z,94315.79
2018-02-05T21:49:35.416Z,94309.92
2018-02-05T21:52:06.886Z,94315.14
2018-02-05T21:54:37.157Z,94312.68
2018-02-05T21:57:10.290Z,94304.28
2018-02-05T21:59:40.542Z,94301.59
2018-02-05T22:02:15.420Z,94299.23
2018-02-05T22:04:45.240Z,94296.38
2018-02-05T22:07:21.106Z,94289.80
2018-02-05T22:09:56.521Z,94296.05
2018-02-05T22:15:23.922Z,94294.50
2018-02-05T22:19:11.185Z,94296.23
2018-02-05T22:21:44.070Z,94284.94
2018-02-05T22:43:25.901Z,94286.67
2018-02-05T22:54:39.536Z,94291.25
2018-02-05T22:57:22.525Z,94280.58
2018-02-05T23:40:34.195Z,94270.65
2018-02-05T23:48:11.234Z,94267.59
2018-02-05T23:50:39.858Z,94253.25
2018-02-05T23:53:07.520Z,94255.44
2018-02-05T23:55:35.425Z,94251.92
